sensor_id;sensor_type;location;lat;lon;timestamp;P1;durP1;ratioP1;P2;durP2;ratioP2
49826;SDS011;35715;51.570;6.036;2024-01-30T00:01:39;10.13;;;8.90;;
49826;SDS011;35715;51.570;6.036;2024-01-30T00:04:04;13.40;;;7.95;;
49826;SDS011;35715;51.570;6.036;2024-01-30T00:06:29;10.23;;;8.27;;
49826;SDS011;35715;51.570;6.036;2024-01-30T00:08:55;10.43;;;8.57;;
49826;SDS011;35715;51.570;6.036;2024-01-30T00:11:20;14.27;;;8.82;;
49826;SDS011;35715;51.570;6.036;2024-01-30T00:13:46;10.25;;;8.68;;
49826;SDS011;35715;51.570;6.036;2024-01-30T00:16:23;10.70;;;8.48;;
49826;SDS011;35715;51.570;6.036;2024-01-30T00:18:52;9.55;;;8.52;;
49826;SDS011;35715;51.570;6.036;2024-01-30T00:21:18;12.05;;;10.02;;
49826;SDS011;35715;51.570;6.036;2024-01-30T00:23:44;10.23;;;9.05;;
49826;SDS011;35715;51.570;6.036;2024-01-30T00:26:09;12.40;;;10.30;;
49826;SDS011;35715;51.570;6.036;2024-01-30T00:28:36;13.13;;;9.38;;
49826;SDS011;35715;51.570;6.036;2024-01-30T00:31:02;29.05;;;11.57;;
49826;SDS011;35715;51.570;6.036;2024-01-30T00:33:27;15.40;;;11.00;;
49826;SDS011;35715;51.570;6.036;2024-01-30T00:35:53;15.65;;;10.38;;
49826;SDS011;35715;51.570;6.036;2024-01-30T00:38:21;13.73;;;8.98;;
49826;SDS011;35715;51.570;6.036;2024-01-30T00:40:47;12.00;;;7.97;;
49826;SDS011;35715;51.570;6.036;2024-01-30T00:43:13;15.95;;;10.18;;
49826;SDS011;35715;51.570;6.036;2024-01-30T00:45:38;17.85;;;10.07;;
49826;SDS011;35715;51.570;6.036;2024-01-30T00:48:03;19.50;;;13.02;;
49826;SDS011;35715;51.570;6.036;2024-01-30T00:50:29;27.65;;;16.42;;
49826;SDS011;35715;51.570;6.036;2024-01-30T00:52:54;18.17;;;11.82;;
49826;SDS011;35715;51.570;6.036;2024-01-30T00:55:20;10.15;;;8.63;;
49826;SDS011;35715;51.570;6.036;2024-01-30T00:57:45;13.32;;;8.38;;
49826;SDS011;35715;51.570;6.036;2024-01-30T01:00:12;10.10;;;9.10;;
49826;SDS011;35715;51.570;6.036;2024-01-30T01:02:38;10.55;;;8.55;;
49826;SDS011;35715;51.570;6.036;2024-01-30T01:05:06;10.13;;;8.18;;
49826;SDS011;35715;51.570;6.036;2024-01-30T01:07:32;11.43;;;8.15;;
49826;SDS011;35715;51.570;6.036;2024-01-30T01:09:57;9.73;;;8.73;;
49826;SDS011;35715;51.570;6.036;2024-01-30T01:12:22;10.90;;;8.93;;
49826;SDS011;35715;51.570;6.036;2024-01-30T01:14:48;11.80;;;8.82;;
49826;SDS011;35715;51.570;6.036;2024-01-30T01:17:13;16.52;;;10.88;;
49826;SDS011;35715;51.570;6.036;2024-01-30T01:19:39;12.50;;;10.20;;
49826;SDS011;35715;51.570;6.036;2024-01-30T01:22:04;14.60;;;9.02;;
49826;SDS011;35715;51.570;6.036;2024-01-30T01:24:30;11.77;;;9.68;;
49826;SDS011;35715;51.570;6.036;2024-01-30T01:26:57;13.20;;;10.55;;
49826;SDS011;35715;51.570;6.036;2024-01-30T01:29:23;12.32;;;9.68;;
49826;SDS011;35715;51.570;6.036;2024-01-30T01:31:54;10.80;;;9.40;;
49826;SDS011;35715;51.570;6.036;2024-01-30T01:34:23;11.88;;;9.32;;
49826;SDS011;35715;51.570;6.036;2024-01-30T01:36:49;13.13;;;9.77;;
49826;SDS011;35715;51.570;6.036;2024-01-30T01:39:15;19.27;;;11.07;;
49826;SDS011;35715;51.570;6.036;2024-01-30T01:41:41;11.52;;;9.07;;
49826;SDS011;35715;51.570;6.036;2024-01-30T01:44:07;13.10;;;10.00;;
49826;SDS011;35715;51.570;6.036;2024-01-30T01:46:33;17.90;;;8.85;;
49826;SDS011;35715;51.570;6.036;2024-01-30T01:48:59;14.70;;;10.77;;
49826;SDS011;35715;51.570;6.036;2024-01-30T01:51:26;11.60;;;9.98;;
49826;SDS011;35715;51.570;6.036;2024-01-30T01:53:56;11.95;;;8.60;;
49826;SDS011;35715;51.570;6.036;2024-01-30T01:56:26;21.33;;;11.15;;
49826;SDS011;35715;51.570;6.036;2024-01-30T01:58:54;13.40;;;9.60;;
49826;SDS011;35715;51.570;6.036;2024-01-30T02:01:20;11.45;;;9.60;;
49826;SDS011;35715;51.570;6.036;2024-01-30T02:03:47;17.30;;;9.90;;
49826;SDS011;35715;51.570;6.036;2024-01-30T02:06:13;10.90;;;9.02;;
49826;SDS011;35715;51.570;6.036;2024-01-30T02:08:42;11.95;;;8.55;;
49826;SDS011;35715;51.570;6.036;2024-01-30T02:11:07;9.80;;;8.75;;
49826;SDS011;35715;51.570;6.036;2024-01-30T02:13:52;11.30;;;9.27;;
49826;SDS011;35715;51.570;6.036;2024-01-30T02:16:17;15.10;;;9.38;;
49826;SDS011;35715;51.570;6.036;2024-01-30T02:18:43;13.27;;;9.98;;
49826;SDS011;35715;51.570;6.036;2024-01-30T02:21:12;14.38;;;9.13;;
49826;SDS011;35715;51.570;6.036;2024-01-30T02:23:38;11.90;;;9.45;;
49826;SDS011;35715;51.570;6.036;2024-01-30T02:26:04;13.23;;;9.07;;
49826;SDS011;35715;51.570;6.036;2024-01-30T02:28:30;18.17;;;9.13;;
49826;SDS011;35715;51.570;6.036;2024-01-30T02:30:55;14.75;;;11.13;;
49826;SDS011;35715;51.570;6.036;2024-01-30T02:33:30;10.60;;;7.75;;
49826;SDS011;35715;51.570;6.036;2024-01-30T02:35:55;13.80;;;10.13;;
49826;SDS011;35715;51.570;6.036;2024-01-30T02:38:21;13.82;;;8.98;;
49826;SDS011;35715;51.570;6.036;2024-01-30T02:40:46;11.07;;;9.40;;
49826;SDS011;35715;51.570;6.036;2024-01-30T02:43:12;9.23;;;8.13;;
49826;SDS011;35715;51.570;6.036;2024-01-30T02:45:37;18.10;;;10.18;;
49826;SDS011;35715;51.570;6.036;2024-01-30T02:48:03;12.70;;;9.70;;
49826;SDS011;35715;51.570;6.036;2024-01-30T02:50:28;12.95;;;8.75;;
49826;SDS011;35715;51.570;6.036;2024-01-30T02:52:54;11.52;;;8.80;;
49826;SDS011;35715;51.570;6.036;2024-01-30T02:55:19;10.25;;;9.02;;
49826;SDS011;35715;51.570;6.036;2024-01-30T02:57:44;15.50;;;8.95;;
49826;SDS011;35715;51.570;6.036;2024-01-30T03:00:10;9.38;;;7.97;;
49826;SDS011;35715;51.570;6.036;2024-01-30T03:02:36;12.00;;;8.82;;
49826;SDS011;35715;51.570;6.036;2024-01-30T03:05:05;12.70;;;9.35;;
49826;SDS011;35715;51.570;6.036;2024-01-30T03:07:31;12.68;;;9.40;;
49826;SDS011;35715;51.570;6.036;2024-01-30T03:09:57;9.38;;;8.38;;
49826;SDS011;35715;51.570;6.036;2024-01-30T03:12:23;14.00;;;9.27;;
49826;SDS011;35715;51.570;6.036;2024-01-30T03:14:48;11.07;;;9.05;;
49826;SDS011;35715;51.570;6.036;2024-01-30T03:17:14;12.38;;;9.70;;
49826;SDS011;35715;51.570;6.036;2024-01-30T03:19:40;13.98;;;9.82;;
49826;SDS011;35715;51.570;6.036;2024-01-30T03:22:05;15.52;;;9.95;;
49826;SDS011;35715;51.570;6.036;2024-01-30T03:24:31;10.02;;;7.82;;
49826;SDS011;35715;51.570;6.036;2024-01-30T03:26:56;13.63;;;8.10;;
49826;SDS011;35715;51.570;6.036;2024-01-30T03:29:22;17.05;;;9.45;;
49826;SDS011;35715;51.570;6.036;2024-01-30T03:31:50;16.33;;;8.75;;
49826;SDS011;35715;51.570;6.036;2024-01-30T03:34:15;14.15;;;8.88;;
49826;SDS011;35715;51.570;6.036;2024-01-30T03:36:41;10.02;;;8.70;;
49826;SDS011;35715;51.570;6.036;2024-01-30T03:39:06;13.90;;;8.13;;
49826;SDS011;35715;51.570;6.036;2024-01-30T03:41:32;16.98;;;8.70;;
49826;SDS011;35715;51.570;6.036;2024-01-30T03:43:57;10.27;;;8.15;;
49826;SDS011;35715;51.570;6.036;2024-01-30T03:46:23;12.75;;;9.00;;
49826;SDS011;35715;51.570;6.036;2024-01-30T03:48:49;22.02;;;10.45;;
49826;SDS011;35715;51.570;6.036;2024-01-30T03:51:14;14.63;;;9.05;;
49826;SDS011;35715;51.570;6.036;2024-01-30T03:53:44;17.13;;;8.98;;
49826;SDS011;35715;51.570;6.036;2024-01-30T03:56:11;9.73;;;8.00;;
49826;SDS011;35715;51.570;6.036;2024-01-30T03:58:40;9.85;;;7.35;;
49826;SDS011;35715;51.570;6.036;2024-01-30T04:01:06;9.10;;;7.90;;
49826;SDS011;35715;51.570;6.036;2024-01-30T04:03:32;11.30;;;7.20;;
49826;SDS011;35715;51.570;6.036;2024-01-30T04:05:58;14.23;;;8.25;;
49826;SDS011;35715;51.570;6.036;2024-01-30T04:08:23;11.60;;;7.25;;
49826;SDS011;35715;51.570;6.036;2024-01-30T04:10:51;11.38;;;7.95;;
49826;SDS011;35715;51.570;6.036;2024-01-30T04:13:16;12.95;;;8.88;;
49826;SDS011;35715;51.570;6.036;2024-01-30T04:15:42;11.63;;;8.27;;
49826;SDS011;35715;51.570;6.036;2024-01-30T04:18:10;17.77;;;9.68;;
49826;SDS011;35715;51.570;6.036;2024-01-30T04:20:41;8.10;;;7.30;;
49826;SDS011;35715;51.570;6.036;2024-01-30T04:23:07;12.82;;;7.85;;
49826;SDS011;35715;51.570;6.036;2024-01-30T04:25:32;13.27;;;8.48;;
49826;SDS011;35715;51.570;6.036;2024-01-30T04:27:57;11.82;;;7.88;;
49826;SDS011;35715;51.570;6.036;2024-01-30T04:30:23;9.52;;;7.43;;
49826;SDS011;35715;51.570;6.036;2024-01-30T04:32:51;12.48;;;7.28;;
49826;SDS011;35715;51.570;6.036;2024-01-30T04:35:17;8.77;;;7.90;;
49826;SDS011;35715;51.570;6.036;2024-01-30T04:37:42;13.45;;;9.52;;
49826;SDS011;35715;51.570;6.036;2024-01-30T04:40:07;11.38;;;7.57;;
49826;SDS011;35715;51.570;6.036;2024-01-30T04:42:34;11.65;;;8.13;;
49826;SDS011;35715;51.570;6.036;2024-01-30T04:45:00;10.50;;;8.07;;
49826;SDS011;35715;51.570;6.036;2024-01-30T04:47:25;11.10;;;8.32;;
49826;SDS011;35715;51.570;6.036;2024-01-30T04:49:51;11.95;;;8.02;;
49826;SDS011;35715;51.570;6.036;2024-01-30T04:52:16;11.52;;;8.65;;
49826;SDS011;35715;51.570;6.036;2024-01-30T04:54:42;17.73;;;8.55;;
49826;SDS011;35715;51.570;6.036;2024-01-30T04:57:07;18.10;;;7.82;;
49826;SDS011;35715;51.570;6.036;2024-01-30T04:59:34;9.02;;;7.00;;
49826;SDS011;35715;51.570;6.036;2024-01-30T05:02:00;8.80;;;7.93;;
49826;SDS011;35715;51.570;6.036;2024-01-30T05:04:29;8.85;;;6.47;;
49826;SDS011;35715;51.570;6.036;2024-01-30T05:06:54;11.57;;;8.13;;
49826;SDS011;35715;51.570;6.036;2024-01-30T05:09:20;14.55;;;8.00;;
49826;SDS011;35715;51.570;6.036;2024-01-30T05:11:46;10.63;;;7.00;;
49826;SDS011;35715;51.570;6.036;2024-01-30T05:14:11;14.85;;;8.27;;
49826;SDS011;35715;51.570;6.036;2024-01-30T05:16:37;8.57;;;7.18;;
49826;SDS011;35715;51.570;6.036;2024-01-30T05:19:02;10.85;;;7.95;;
49826;SDS011;35715;51.570;6.036;2024-01-30T05:21:28;8.15;;;7.00;;
49826;SDS011;35715;51.570;6.036;2024-01-30T05:23:53;9.63;;;7.65;;
49826;SDS011;35715;51.570;6.036;2024-01-30T05:26:18;9.68;;;7.20;;
49826;SDS011;35715;51.570;6.036;2024-01-30T05:28:48;14.70;;;9.27;;
49826;SDS011;35715;51.570;6.036;2024-01-30T05:31:13;8.80;;;6.88;;
49826;SDS011;35715;51.570;6.036;2024-01-30T05:33:39;7.88;;;6.13;;
49826;SDS011;35715;51.570;6.036;2024-01-30T05:36:05;10.07;;;8.32;;
49826;SDS011;35715;51.570;6.036;2024-01-30T05:38:31;8.77;;;7.68;;
49826;SDS011;35715;51.570;6.036;2024-01-30T05:40:57;7.10;;;6.30;;
49826;SDS011;35715;51.570;6.036;2024-01-30T05:43:25;10.27;;;8.45;;
49826;SDS011;35715;51.570;6.036;2024-01-30T05:45:51;9.13;;;6.80;;
49826;SDS011;35715;51.570;6.036;2024-01-30T05:48:17;12.52;;;7.03;;
49826;SDS011;35715;51.570;6.036;2024-01-30T05:50:43;10.05;;;6.82;;
49826;SDS011;35715;51.570;6.036;2024-01-30T05:53:08;9.40;;;7.55;;
49826;SDS011;35715;51.570;6.036;2024-01-30T05:55:36;8.40;;;6.35;;
49826;SDS011;35715;51.570;6.036;2024-01-30T05:58:01;8.90;;;6.75;;
49826;SDS011;35715;51.570;6.036;2024-01-30T06:00:27;10.82;;;7.65;;
49826;SDS011;35715;51.570;6.036;2024-01-30T06:02:52;8.27;;;7.20;;
49826;SDS011;35715;51.570;6.036;2024-01-30T06:05:18;10.65;;;6.57;;
49826;SDS011;35715;51.570;6.036;2024-01-30T06:07:43;7.13;;;6.43;;
49826;SDS011;35715;51.570;6.036;2024-01-30T06:10:08;10.45;;;6.68;;
49826;SDS011;35715;51.570;6.036;2024-01-30T06:12:34;10.88;;;6.97;;
49826;SDS011;35715;51.570;6.036;2024-01-30T06:15:00;12.85;;;7.55;;
49826;SDS011;35715;51.570;6.036;2024-01-30T06:17:25;12.23;;;6.60;;
49826;SDS011;35715;51.570;6.036;2024-01-30T06:19:51;8.05;;;5.57;;
49826;SDS011;35715;51.570;6.036;2024-01-30T06:22:16;7.82;;;6.28;;
49826;SDS011;35715;51.570;6.036;2024-01-30T06:24:45;7.25;;;5.80;;
49826;SDS011;35715;51.570;6.036;2024-01-30T06:27:12;16.70;;;7.65;;
49826;SDS011;35715;51.570;6.036;2024-01-30T06:29:38;16.63;;;7.40;;
49826;SDS011;35715;51.570;6.036;2024-01-30T06:32:03;22.92;;;7.38;;
49826;SDS011;35715;51.570;6.036;2024-01-30T06:34:29;9.43;;;6.18;;
49826;SDS011;35715;51.570;6.036;2024-01-30T06:36:54;11.90;;;6.80;;
49826;SDS011;35715;51.570;6.036;2024-01-30T06:39:20;10.70;;;7.05;;
49826;SDS011;35715;51.570;6.036;2024-01-30T06:41:47;7.90;;;6.88;;
49826;SDS011;35715;51.570;6.036;2024-01-30T06:44:12;11.77;;;6.40;;
49826;SDS011;35715;51.570;6.036;2024-01-30T06:46:38;10.38;;;6.10;;
49826;SDS011;35715;51.570;6.036;2024-01-30T06:49:03;9.90;;;5.72;;
49826;SDS011;35715;51.570;6.036;2024-01-30T06:51:29;9.15;;;6.63;;
49826;SDS011;35715;51.570;6.036;2024-01-30T06:53:54;10.70;;;6.38;;
49826;SDS011;35715;51.570;6.036;2024-01-30T06:56:20;11.30;;;8.38;;
49826;SDS011;35715;51.570;6.036;2024-01-30T06:58:52;11.80;;;6.25;;
49826;SDS011;35715;51.570;6.036;2024-01-30T07:01:17;12.18;;;6.93;;
49826;SDS011;35715;51.570;6.036;2024-01-30T07:03:43;10.73;;;5.78;;
49826;SDS011;35715;51.570;6.036;2024-01-30T07:06:08;9.77;;;7.25;;
49826;SDS011;35715;51.570;6.036;2024-01-30T07:08:35;15.75;;;8.73;;
49826;SDS011;35715;51.570;6.036;2024-01-30T07:11:02;12.35;;;6.65;;
49826;SDS011;35715;51.570;6.036;2024-01-30T07:13:27;6.75;;;6.15;;
49826;SDS011;35715;51.570;6.036;2024-01-30T07:15:53;10.73;;;5.72;;
49826;SDS011;35715;51.570;6.036;2024-01-30T07:18:19;13.63;;;7.68;;
49826;SDS011;35715;51.570;6.036;2024-01-30T07:20:44;11.63;;;6.75;;
49826;SDS011;35715;51.570;6.036;2024-01-30T07:23:14;8.27;;;5.73;;
49826;SDS011;35715;51.570;6.036;2024-01-30T07:25:42;8.20;;;6.93;;
49826;SDS011;35715;51.570;6.036;2024-01-30T07:28:08;15.10;;;6.80;;
49826;SDS011;35715;51.570;6.036;2024-01-30T07:30:35;8.70;;;7.28;;
49826;SDS011;35715;51.570;6.036;2024-01-30T07:33:00;14.73;;;8.10;;
49826;SDS011;35715;51.570;6.036;2024-01-30T07:35:25;10.55;;;6.90;;
49826;SDS011;35715;51.570;6.036;2024-01-30T07:37:51;7.05;;;6.07;;
49826;SDS011;35715;51.570;6.036;2024-01-30T07:40:16;10.73;;;7.25;;
49826;SDS011;35715;51.570;6.036;2024-01-30T07:42:42;7.18;;;6.50;;
49826;SDS011;35715;51.570;6.036;2024-01-30T07:45:08;8.68;;;6.35;;
49826;SDS011;35715;51.570;6.036;2024-01-30T07:47:34;8.35;;;5.78;;
49826;SDS011;35715;51.570;6.036;2024-01-30T07:49:59;9.55;;;7.60;;
49826;SDS011;35715;51.570;6.036;2024-01-30T07:52:24;8.30;;;5.82;;
49826;SDS011;35715;51.570;6.036;2024-01-30T07:54:53;8.80;;;6.18;;
49826;SDS011;35715;51.570;6.036;2024-01-30T07:57:18;8.00;;;6.50;;
49826;SDS011;35715;51.570;6.036;2024-01-30T07:59:44;9.25;;;6.32;;
49826;SDS011;35715;51.570;6.036;2024-01-30T08:02:13;9.95;;;6.40;;
49826;SDS011;35715;51.570;6.036;2024-01-30T08:04:41;9.60;;;6.82;;
49826;SDS011;35715;51.570;6.036;2024-01-30T08:07:06;7.90;;;7.05;;
49826;SDS011;35715;51.570;6.036;2024-01-30T08:09:32;11.73;;;5.70;;
49826;SDS011;35715;51.570;6.036;2024-01-30T08:11:57;8.82;;;6.72;;
49826;SDS011;35715;51.570;6.036;2024-01-30T08:14:23;7.97;;;7.20;;
49826;SDS011;35715;51.570;6.036;2024-01-30T08:16:48;7.35;;;6.53;;
49826;SDS011;35715;51.570;6.036;2024-01-30T08:19:16;11.45;;;6.95;;
49826;SDS011;35715;51.570;6.036;2024-01-30T08:21:42;10.27;;;7.28;;
49826;SDS011;35715;51.570;6.036;2024-01-30T08:24:10;7.40;;;6.22;;
49826;SDS011;35715;51.570;6.036;2024-01-30T08:26:35;9.25;;;6.75;;
49826;SDS011;35715;51.570;6.036;2024-01-30T08:29:02;12.05;;;7.43;;
49826;SDS011;35715;51.570;6.036;2024-01-30T08:31:27;8.15;;;6.28;;
49826;SDS011;35715;51.570;6.036;2024-01-30T08:33:55;7.13;;;6.03;;
49826;SDS011;35715;51.570;6.036;2024-01-30T08:36:21;12.10;;;7.20;;
49826;SDS011;35715;51.570;6.036;2024-01-30T08:38:47;7.38;;;6.25;;
49826;SDS011;35715;51.570;6.036;2024-01-30T08:41:12;7.80;;;6.63;;
49826;SDS011;35715;51.570;6.036;2024-01-30T08:43:40;8.40;;;6.18;;
49826;SDS011;35715;51.570;6.036;2024-01-30T08:46:06;8.95;;;6.95;;
49826;SDS011;35715;51.570;6.036;2024-01-30T08:48:31;8.13;;;6.07;;
49826;SDS011;35715;51.570;6.036;2024-01-30T08:50:57;7.22;;;6.10;;
49826;SDS011;35715;51.570;6.036;2024-01-30T08:53:22;7.55;;;6.25;;
49826;SDS011;35715;51.570;6.036;2024-01-30T08:55:47;7.38;;;6.28;;
49826;SDS011;35715;51.570;6.036;2024-01-30T08:58:13;11.88;;;6.75;;
49826;SDS011;35715;51.570;6.036;2024-01-30T09:00:38;9.75;;;6.57;;
49826;SDS011;35715;51.570;6.036;2024-01-30T09:03:04;8.80;;;5.85;;
49826;SDS011;35715;51.570;6.036;2024-01-30T09:05:30;8.93;;;6.75;;
49826;SDS011;35715;51.570;6.036;2024-01-30T09:07:55;8.95;;;5.90;;
49826;SDS011;35715;51.570;6.036;2024-01-30T09:10:21;10.07;;;6.90;;
49826;SDS011;35715;51.570;6.036;2024-01-30T09:12:47;10.77;;;7.43;;
49826;SDS011;35715;51.570;6.036;2024-01-30T09:15:13;6.45;;;5.82;;
49826;SDS011;35715;51.570;6.036;2024-01-30T09:17:38;9.60;;;5.47;;
49826;SDS011;35715;51.570;6.036;2024-01-30T09:20:07;7.63;;;5.32;;
49826;SDS011;35715;51.570;6.036;2024-01-30T09:24:59;36.50;;;8.07;;
49826;SDS011;35715;51.570;6.036;2024-01-30T09:27:24;5.75;;;5.25;;
49826;SDS011;35715;51.570;6.036;2024-01-30T09:29:50;6.35;;;5.75;;
49826;SDS011;35715;51.570;6.036;2024-01-30T09:32:15;13.73;;;8.07;;
49826;SDS011;35715;51.570;6.036;2024-01-30T09:34:41;6.70;;;5.65;;
49826;SDS011;35715;51.570;6.036;2024-01-30T09:37:07;8.98;;;5.78;;
49826;SDS011;35715;51.570;6.036;2024-01-30T09:39:32;6.72;;;6.05;;
49826;SDS011;35715;51.570;6.036;2024-01-30T09:45:04;10.68;;;6.38;;
49826;SDS011;35715;51.570;6.036;2024-01-30T09:47:31;7.78;;;5.85;;
49826;SDS011;35715;51.570;6.036;2024-01-30T09:50:02;9.65;;;7.72;;
49826;SDS011;35715;51.570;6.036;2024-01-30T09:52:28;15.20;;;6.10;;
49826;SDS011;35715;51.570;6.036;2024-01-30T09:54:53;7.93;;;6.97;;
49826;SDS011;35715;51.570;6.036;2024-01-30T09:57:19;9.70;;;6.68;;
49826;SDS011;35715;51.570;6.036;2024-01-30T09:59:45;10.90;;;6.93;;
49826;SDS011;35715;51.570;6.036;2024-01-30T10:02:11;9.50;;;7.00;;
49826;SDS011;35715;51.570;6.036;2024-01-30T10:04:37;8.63;;;7.65;;
49826;SDS011;35715;51.570;6.036;2024-01-30T10:07:02;7.75;;;6.93;;
49826;SDS011;35715;51.570;6.036;2024-01-30T10:09:28;14.10;;;10.40;;
49826;SDS011;35715;51.570;6.036;2024-01-30T10:11:54;9.27;;;7.32;;
49826;SDS011;35715;51.570;6.036;2024-01-30T10:14:19;11.70;;;7.25;;
49826;SDS011;35715;51.570;6.036;2024-01-30T10:16:46;10.70;;;8.32;;
49826;SDS011;35715;51.570;6.036;2024-01-30T10:19:11;10.40;;;8.38;;
49826;SDS011;35715;51.570;6.036;2024-01-30T10:21:37;11.82;;;8.25;;
49826;SDS011;35715;51.570;6.036;2024-01-30T10:24:02;7.47;;;6.07;;
49826;SDS011;35715;51.570;6.036;2024-01-30T10:26:28;8.07;;;6.93;;
49826;SDS011;35715;51.570;6.036;2024-01-30T10:28:54;8.70;;;7.00;;
49826;SDS011;35715;51.570;6.036;2024-01-30T10:31:20;7.63;;;6.30;;
49826;SDS011;35715;51.570;6.036;2024-01-30T10:33:45;9.63;;;5.85;;
49826;SDS011;35715;51.570;6.036;2024-01-30T10:36:11;8.80;;;6.18;;
49826;SDS011;35715;51.570;6.036;2024-01-30T10:38:38;7.68;;;6.45;;
49826;SDS011;35715;51.570;6.036;2024-01-30T10:41:07;26.33;;;7.90;;
49826;SDS011;35715;51.570;6.036;2024-01-30T10:43:39;18.70;;;6.63;;
49826;SDS011;35715;51.570;6.036;2024-01-30T10:46:19;7.43;;;6.70;;
49826;SDS011;35715;51.570;6.036;2024-01-30T10:48:46;8.77;;;6.72;;
49826;SDS011;35715;51.570;6.036;2024-01-30T10:51:22;8.30;;;6.95;;
49826;SDS011;35715;51.570;6.036;2024-01-30T10:53:51;9.55;;;7.60;;
49826;SDS011;35715;51.570;6.036;2024-01-30T10:56:18;9.90;;;6.80;;
49826;SDS011;35715;51.570;6.036;2024-01-30T10:58:46;11.38;;;7.85;;
49826;SDS011;35715;51.570;6.036;2024-01-30T11:01:13;10.13;;;7.50;;
49826;SDS011;35715;51.570;6.036;2024-01-30T11:03:40;8.40;;;7.00;;
49826;SDS011;35715;51.570;6.036;2024-01-30T11:06:10;10.02;;;6.07;;
49826;SDS011;35715;51.570;6.036;2024-01-30T11:08:37;8.38;;;6.63;;
49826;SDS011;35715;51.570;6.036;2024-01-30T11:11:02;13.88;;;9.00;;
49826;SDS011;35715;51.570;6.036;2024-01-30T11:13:34;12.02;;;7.65;;
49826;SDS011;35715;51.570;6.036;2024-01-30T11:16:03;10.77;;;7.03;;
49826;SDS011;35715;51.570;6.036;2024-01-30T11:18:30;9.88;;;6.13;;
49826;SDS011;35715;51.570;6.036;2024-01-30T11:21:00;8.93;;;6.72;;
49826;SDS011;35715;51.570;6.036;2024-01-30T11:23:30;7.25;;;6.18;;
49826;SDS011;35715;51.570;6.036;2024-01-30T11:25:56;11.20;;;8.18;;
49826;SDS011;35715;51.570;6.036;2024-01-30T11:28:22;17.20;;;8.52;;
49826;SDS011;35715;51.570;6.036;2024-01-30T11:30:48;9.10;;;6.22;;
49826;SDS011;35715;51.570;6.036;2024-01-30T11:33:26;11.88;;;7.43;;
49826;SDS011;35715;51.570;6.036;2024-01-30T11:35:53;16.20;;;7.78;;
49826;SDS011;35715;51.570;6.036;2024-01-30T11:38:19;11.20;;;6.78;;
49826;SDS011;35715;51.570;6.036;2024-01-30T11:40:44;15.07;;;7.95;;
49826;SDS011;35715;51.570;6.036;2024-01-30T11:43:10;9.60;;;8.05;;
49826;SDS011;35715;51.570;6.036;2024-01-30T11:45:36;7.28;;;6.32;;
49826;SDS011;35715;51.570;6.036;2024-01-30T11:48:02;10.48;;;6.45;;
49826;SDS011;35715;51.570;6.036;2024-01-30T11:50:38;10.57;;;8.20;;
49826;SDS011;35715;51.570;6.036;2024-01-30T11:53:04;13.98;;;10.30;;
49826;SDS011;35715;51.570;6.036;2024-01-30T11:55:30;15.77;;;9.65;;
49826;SDS011;35715;51.570;6.036;2024-01-30T11:57:59;11.38;;;7.97;;
49826;SDS011;35715;51.570;6.036;2024-01-30T12:00:25;9.88;;;7.03;;
49826;SDS011;35715;51.570;6.036;2024-01-30T12:02:51;17.38;;;9.60;;
49826;SDS011;35715;51.570;6.036;2024-01-30T12:05:20;14.55;;;9.02;;
49826;SDS011;35715;51.570;6.036;2024-01-30T12:07:46;11.18;;;6.88;;
49826;SDS011;35715;51.570;6.036;2024-01-30T12:10:12;12.98;;;8.05;;
49826;SDS011;35715;51.570;6.036;2024-01-30T12:12:47;13.23;;;9.10;;
49826;SDS011;35715;51.570;6.036;2024-01-30T12:17:39;10.07;;;6.55;;
49826;SDS011;35715;51.570;6.036;2024-01-30T12:20:12;9.90;;;6.88;;
49826;SDS011;35715;51.570;6.036;2024-01-30T12:22:42;11.73;;;7.53;;
49826;SDS011;35715;51.570;6.036;2024-01-30T12:25:12;14.35;;;9.43;;
49826;SDS011;35715;51.570;6.036;2024-01-30T12:27:39;11.75;;;7.68;;
49826;SDS011;35715;51.570;6.036;2024-01-30T12:30:14;14.23;;;9.15;;
49826;SDS011;35715;51.570;6.036;2024-01-30T12:32:40;7.53;;;6.63;;
49826;SDS011;35715;51.570;6.036;2024-01-30T12:35:10;9.63;;;7.20;;
49826;SDS011;35715;51.570;6.036;2024-01-30T12:37:36;10.02;;;6.55;;
49826;SDS011;35715;51.570;6.036;2024-01-30T12:40:02;7.90;;;5.40;;
49826;SDS011;35715;51.570;6.036;2024-01-30T12:42:28;9.10;;;7.13;;
49826;SDS011;35715;51.570;6.036;2024-01-30T12:44:57;8.75;;;6.35;;
49826;SDS011;35715;51.570;6.036;2024-01-30T12:47:23;11.07;;;7.28;;
49826;SDS011;35715;51.570;6.036;2024-01-30T12:49:48;11.65;;;6.40;;
49826;SDS011;35715;51.570;6.036;2024-01-30T12:52:16;10.32;;;7.20;;
49826;SDS011;35715;51.570;6.036;2024-01-30T12:54:42;14.00;;;5.97;;
49826;SDS011;35715;51.570;6.036;2024-01-30T12:57:07;9.00;;;6.28;;
49826;SDS011;35715;51.570;6.036;2024-01-30T12:59:33;11.50;;;6.65;;
49826;SDS011;35715;51.570;6.036;2024-01-30T13:02:00;6.28;;;4.60;;
49826;SDS011;35715;51.570;6.036;2024-01-30T13:04:26;20.13;;;6.30;;
49826;SDS011;35715;51.570;6.036;2024-01-30T13:06:52;8.02;;;5.38;;
49826;SDS011;35715;51.570;6.036;2024-01-30T13:09:17;6.90;;;5.20;;
49826;SDS011;35715;51.570;6.036;2024-01-30T13:11:43;6.10;;;4.10;;
49826;SDS011;35715;51.570;6.036;2024-01-30T13:14:08;4.75;;;3.53;;
49826;SDS011;35715;51.570;6.036;2024-01-30T13:16:33;9.32;;;4.78;;
49826;SDS011;35715;51.570;6.036;2024-01-30T13:18:59;10.68;;;4.97;;
49826;SDS011;35715;51.570;6.036;2024-01-30T13:21:26;8.63;;;4.90;;
49826;SDS011;35715;51.570;6.036;2024-01-30T13:23:54;12.73;;;5.90;;
49826;SDS011;35715;51.570;6.036;2024-01-30T13:26:20;8.52;;;4.07;;
49826;SDS011;35715;51.570;6.036;2024-01-30T13:28:46;8.52;;;3.30;;
49826;SDS011;35715;51.570;6.036;2024-01-30T13:31:12;9.25;;;5.05;;
49826;SDS011;35715;51.570;6.036;2024-01-30T13:33:40;12.57;;;3.45;;
49826;SDS011;35715;51.570;6.036;2024-01-30T13:36:09;6.00;;;3.05;;
49826;SDS011;35715;51.570;6.036;2024-01-30T13:38:36;8.20;;;3.28;;
49826;SDS011;35715;51.570;6.036;2024-01-30T13:41:02;4.28;;;2.83;;
49826;SDS011;35715;51.570;6.036;2024-01-30T13:43:28;2.95;;;2.60;;
49826;SDS011;35715;51.570;6.036;2024-01-30T13:45:54;2.83;;;1.70;;
49826;SDS011;35715;51.570;6.036;2024-01-30T13:48:19;3.53;;;1.52;;
49826;SDS011;35715;51.570;6.036;2024-01-30T13:50:51;4.85;;;1.55;;
49826;SDS011;35715;51.570;6.036;2024-01-30T13:53:19;2.75;;;1.45;;
49826;SDS011;35715;51.570;6.036;2024-01-30T13:55:44;2.97;;;1.45;;
49826;SDS011;35715;51.570;6.036;2024-01-30T13:58:10;3.75;;;1.83;;
49826;SDS011;35715;51.570;6.036;2024-01-30T14:00:35;3.28;;;1.10;;
49826;SDS011;35715;51.570;6.036;2024-01-30T14:03:01;4.20;;;1.98;;
49826;SDS011;35715;51.570;6.036;2024-01-30T14:05:26;5.18;;;1.60;;
49826;SDS011;35715;51.570;6.036;2024-01-30T14:07:55;3.08;;;0.77;;
49826;SDS011;35715;51.570;6.036;2024-01-30T14:10:25;5.78;;;1.50;;
49826;SDS011;35715;51.570;6.036;2024-01-30T14:12:50;7.70;;;1.92;;
49826;SDS011;35715;51.570;6.036;2024-01-30T14:15:16;3.13;;;0.60;;
49826;SDS011;35715;51.570;6.036;2024-01-30T14:17:44;2.60;;;1.67;;
49826;SDS011;35715;51.570;6.036;2024-01-30T14:20:10;8.27;;;2.20;;
49826;SDS011;35715;51.570;6.036;2024-01-30T14:22:36;1.80;;;1.50;;
49826;SDS011;35715;51.570;6.036;2024-01-30T14:25:01;1.33;;;1.23;;
49826;SDS011;35715;51.570;6.036;2024-01-30T14:27:29;2.05;;;1.33;;
49826;SDS011;35715;51.570;6.036;2024-01-30T14:29:55;2.47;;;1.30;;
49826;SDS011;35715;51.570;6.036;2024-01-30T14:32:21;5.28;;;1.23;;
49826;SDS011;35715;51.570;6.036;2024-01-30T14:34:46;1.42;;;0.80;;
49826;SDS011;35715;51.570;6.036;2024-01-30T14:37:12;4.78;;;1.52;;
49826;SDS011;35715;51.570;6.036;2024-01-30T14:39:38;3.55;;;1.17;;
49826;SDS011;35715;51.570;6.036;2024-01-30T14:42:05;5.18;;;1.27;;